Time;durP1;ratioP1;P1;durP2;ratioP2;P2;SDS_P1;SDS_P2;PMS_P1;PMS_P2;Temp;Humidity;BMP_temperature;BMP_pressure;BME280_temperature;BME280_humidity;BME280_pressure;Samples;Min_cycle;Max_cycle;Signal;HPM_P1;HPM_P2
2022/09/14 00:00:48;;;;;;;5.50;1.15;;;;;;;23.12;58.66;100182.19;5019306;28;20065;-82
2022/09/14 03:40:18;;;;;;;5.10;1.30;;;;;;;20.87;82.55;100060.34;4975424;28;20050;-82
2022/09/14 03:42:48;;;;;;;2.65;1.00;;;;;;;20.79;83.32;100049.94;4959538;28;20047;-83
2022/09/14 03:45:15;;;;;;;7.18;1.23;;;;;;;20.74;83.62;100047.19;4977012;28;20042;-84
2022/09/14 03:47:41;;;;;;;4.75;1.27;;;;;;;20.75;83.63;100048.81;4977706;28;20438;-83
2022/09/14 03:50:08;;;;;;;5.22;1.25;;;;;;;20.73;84.48;100051.75;4977155;28;20033;-82
2022/09/14 03:52:35;;;;;;;13.68;1.58;;;;;;;20.72;84.51;100058.19;4977324;28;20034;-84
2022/09/14 03:55:00;;;;;;;6.57;1.48;;;;;;;20.72;84.84;100049.28;4977160;28;20494;-81
2022/09/14 03:57:26;;;;;;;5.47;1.60;;;;;;;20.87;83.86;100042.31;4977881;28;20035;-81
2022/09/14 03:59:51;;;;;;;3.90;1.48;;;;;;;20.96;83.88;100046.25;4978585;28;20063;-83
2022/09/14 04:02:17;;;;;;;6.03;1.75;;;;;;;20.76;86.07;100053.94;4980613;28;20045;-82
2022/09/14 04:04:42;;;;;;;6.30;1.73;;;;;;;20.57;87.88;100055.19;4982408;28;20034;-83
2022/09/14 04:07:08;;;;;;;4.15;1.50;;;;;;;20.51;88.66;100054.28;4977426;28;20043;-82
2022/09/14 04:09:34;;;;;;;8.15;1.50;;;;;;;20.63;87.78;100054.22;4976906;28;20042;-80
2022/09/14 04:11:59;;;;;;;4.65;1.65;;;;;;;20.52;88.71;100053.19;4976503;28;20043;-79
2022/09/14 04:14:25;;;;;;;3.95;1.65;;;;;;;20.58;88.60;100046.06;4976778;28;20038;-83
2022/09/14 04:16:50;;;;;;;7.47;1.67;;;;;;;20.65;88.70;100051.31;4976678;28;20093;-84
2022/09/14 04:19:16;;;;;;;8.43;1.80;;;;;;;20.72;88.35;100041.19;4977122;28;20398;-83
2022/09/14 04:21:41;;;;;;;9.02;1.58;;;;;;;20.77;88.24;100038.63;4976492;28;20035;-86
2022/09/14 04:24:15;;;;;;;2.33;1.33;;;;;;;20.82;88.39;100042.22;4976447;28;20396;-87
2022/09/14 04:26:41;;;;;;;3.50;1.40;;;;;;;20.98;87.16;100030.66;4974445;28;20043;-86
2022/09/14 04:29:07;;;;;;;4.88;1.67;;;;;;;20.75;88.94;100036.16;4979393;28;20425;-85
2022/09/14 04:31:33;;;;;;;6.70;1.55;;;;;;;20.74;88.93;100028.31;4977624;28;20050;-86
2022/09/14 04:33:59;;;;;;;7.25;1.60;;;;;;;20.76;89.50;100032.41;4980312;28;20049;-86
2022/09/14 04:36:29;;;;;;;5.05;1.98;;;;;;;20.92;88.90;100020.84;4978768;28;20121;-86
2022/09/14 04:39:00;;;;;;;5.82;1.80;;;;;;;20.73;90.88;100016.72;4982813;28;20049;-83
2022/09/14 04:41:26;;;;;;;5.80;1.85;;;;;;;20.59;92.04;100010.81;4964805;28;20031;-83
2022/09/14 04:43:54;;;;;;;8.13;1.90;;;;;;;20.59;91.86;100004.59;4982735;28;20054;-84
2022/09/14 04:46:28;;;;;;;9.18;2.03;;;;;;;20.65;91.57;100013.63;4980957;28;20145;-83
2022/09/14 04:48:54;;;;;;;7.30;1.90;;;;;;;20.86;89.91;100016.44;4980793;28;20149;-84
2022/09/14 04:51:26;;;;;;;7.13;1.63;;;;;;;20.89;90.44;100009.75;4980990;28;20165;-83
2022/09/14 04:53:57;;;;;;;11.88;2.33;;;;;;;20.97;90.05;100007.50;4997251;28;20043;-88
2022/09/14 04:56:24;;;;;;;5.88;1.90;;;;;;;20.93;90.89;100016.28;4998204;28;20078;-90
2022/09/14 04:58:53;;;;;;;11.70;2.30;;;;;;;20.86;91.31;100005.66;4991700;28;20042;-86
2022/09/14 05:01:25;;;;;;;4.40;1.88;;;;;;;20.65;92.79;100003.63;4979983;28;20058;-84
2022/09/14 05:03:51;;;;;;;3.03;1.25;;;;;;;20.53;94.08;99995.63;4976691;28;20031;-84
2022/09/14 05:06:22;;;;;;;7.60;1.80;;;;;;;20.62;93.88;99998.72;4976153;28;20046;-84
2022/09/14 05:08:49;;;;;;;9.23;2.25;;;;;;;20.73;92.71;99997.88;4976395;28;20547;-86
2022/09/14 05:11:20;;;;;;;9.10;2.30;;;;;;;20.72;93.65;99998.09;4958937;28;20070;-84
2022/09/14 05:13:46;;;;;;;6.80;2.03;;;;;;;20.87;92.54;100018.09;4975511;28;20398;-85
2022/09/14 05:16:20;;;;;;;9.93;2.10;;;;;;;20.92;91.94;100020.84;4957725;28;20038;-88
2022/09/14 05:18:47;;;;;;;8.95;2.00;;;;;;;20.69;93.84;100004.78;4975225;28;20046;-88
2022/09/14 05:21:16;;;;;;;11.63;2.25;;;;;;;20.78;93.42;100007.94;4978049;28;20034;-84
2022/09/14 05:23:41;;;;;;;5.10;2.05;;;;;;;20.69;94.14;99994.03;4981721;28;20114;-88
2022/09/14 05:26:07;;;;;;;4.60;1.98;;;;;;;20.63;94.77;99995.00;4975835;28;20045;-88
2022/09/14 05:28:34;;;;;;;8.73;1.73;;;;;;;20.54;96.20;99977.59;4975291;28;20074;-88
2022/09/14 05:31:07;;;;;;;10.75;1.75;;;;;;;20.59;96.25;99973.09;4975840;28;20034;-85
2022/09/14 05:33:34;;;;;;;10.23;2.25;;;;;;;20.71;95.02;99989.22;4977153;28;20089;-87
2022/09/14 05:36:07;;;;;;;8.80;2.28;;;;;;;20.78;95.23;100008.72;4959268;28;20057;-90
2022/09/14 05:38:35;;;;;;;7.20;2.60;;;;;;;20.77;95.88;100007.13;4975767;28;20046;-89
2022/09/14 05:41:00;;;;;;;7.75;2.05;;;;;;;20.90;95.27;100006.00;4975685;28;20023;-87
2022/09/14 05:43:28;;;;;;;12.30;2.60;;;;;;;20.95;95.32;99993.44;4975121;28;20047;-86
2022/09/14 05:45:53;;;;;;;6.93;2.30;;;;;;;20.94;96.19;99991.00;4975687;28;20488;-85
2022/09/14 05:48:19;;;;;;;8.40;2.50;;;;;;;21.09;95.15;99989.41;4975669;28;20031;-89
2022/09/14 05:50:48;;;;;;;11.05;2.30;;;;;;;21.10;94.78;99993.75;4975331;28;20027;-88
2022/09/14 05:53:13;;;;;;;7.60;2.35;;;;;;;21.33;93.87;99994.66;4974989;28;20039;-88
2022/09/14 05:55:39;;;;;;;12.90;2.45;;;;;;;21.29;94.00;99998.88;4974994;28;20113;-87
2022/09/14 05:58:05;;;;;;;9.38;2.42;;;;;;;21.38;93.03;100000.09;4975849;28;20031;-88
2022/09/14 06:00:31;;;;;;;12.00;2.17;;;;;;;21.54;91.96;100008.19;4975309;28;20042;-84
2022/09/14 06:02:56;;;;;;;9.02;1.88;;;;;;;21.72;91.04;100001.72;4976153;28;20564;-86
2022/09/14 06:05:24;;;;;;;8.70;2.50;;;;;;;22.09;88.06;100008.22;4975642;28;20034;-88
2022/09/14 06:07:51;;;;;;;19.05;2.97;;;;;;;21.85;90.56;100006.78;4975850;28;20046;-88
2022/09/14 06:10:17;;;;;;;10.77;2.60;;;;;;;21.98;90.07;100009.16;4957705;28;20066;-88
2022/09/14 06:12:46;;;;;;;23.55;10.80;;;;;;;22.17;88.89;100012.41;4958265;28;20393;-89
2022/09/14 06:15:12;;;;;;;16.38;5.80;;;;;;;22.36;87.83;100018.28;4958775;28;20405;-85
2022/09/14 06:17:37;;;;;;;9.50;2.05;;;;;;;23.06;83.06;100021.81;4975372;28;20027;-87
2022/09/14 06:20:06;;;;;;;11.20;3.20;;;;;;;23.25;82.04;100021.44;4957595;28;20043;-85
2022/09/14 06:22:32;;;;;;;11.65;2.50;;;;;;;23.14;82.29;100013.22;4975250;28;20039;-89
2022/09/14 06:24:58;;;;;;;10.00;2.30;;;;;;;23.38;80.92;100002.06;4975949;28;20111;-85
2022/09/14 06:27:24;;;;;;;11.32;2.65;;;;;;;23.46;80.62;100004.34;4975489;28;20042;-86
2022/09/14 06:29:52;;;;;;;13.68;3.40;;;;;;;23.91;78.43;100007.34;4975370;28;20078;-83
2022/09/14 06:32:18;;;;;;;7.45;2.88;;;;;;;24.54;74.95;100024.47;4977517;28;20038;-89
2022/09/14 06:34:44;;;;;;;9.57;2.30;;;;;;;25.18;71.43;100035.78;4944331;28;20125;-83
2022/09/14 06:37:10;;;;;;;14.18;3.05;;;;;;;25.27;71.26;100036.88;4978674;28;20062;-89
2022/09/14 06:39:36;;;;;;;17.95;2.72;;;;;;;25.97;66.26;100032.53;4963177;28;20033;-84
2022/09/14 06:42:01;;;;;;;12.70;2.65;;;;;;;25.98;65.93;100024.09;4986008;28;20042;-86
2022/09/14 06:44:28;;;;;;;11.27;2.33;;;;;;;25.92;67.70;100027.91;4970390;28;20039;-86
2022/09/14 06:46:53;;;;;;;14.07;2.92;;;;;;;26.56;64.15;100030.72;4984135;28;20401;-86
2022/09/14 06:49:22;;;;;;;12.40;2.65;;;;;;;26.15;65.22;100031.94;4980922;28;20490;-86
2022/09/14 06:51:49;;;;;;;10.60;2.33;;;;;;;26.33;65.97;100038.69;4978407;28;20030;-89
2022/09/14 06:54:17;;;;;;;10.88;3.05;;;;;;;27.07;62.42;100044.88;4961482;28;20375;-88
2022/09/14 06:56:44;;;;;;;12.57;3.13;;;;;;;26.76;63.28;100046.13;4964357;28;20049;-88
2022/09/14 06:59:12;;;;;;;6.97;2.40;;;;;;;27.00;62.25;100049.81;4985008;28;20030;-90
2022/09/14 07:01:38;;;;;;;11.35;2.85;;;;;;;28.10;56.72;100080.03;4984671;28;20039;-87
2022/09/14 07:04:05;;;;;;;12.00;2.35;;;;;;;28.27;55.44;100090.47;4982627;28;20038;-84
2022/09/14 07:06:38;;;;;;;8.43;2.22;;;;;;;28.54;55.23;100106.22;4979128;28;20390;-90
2022/09/14 07:09:04;;;;;;;8.50;2.17;;;;;;;28.12;56.84;100121.41;4980893;28;20038;-90
2022/09/14 07:11:30;;;;;;;12.95;3.15;;;;;;;28.32;56.30;100146.84;4963937;28;20359;-89
2022/09/14 07:13:59;;;;;;;8.82;2.85;;;;;;;27.96;56.01;100149.06;4981142;28;20030;-89
2022/09/14 07:16:27;;;;;;;7.50;2.90;;;;;;;27.95;56.01;100156.41;4965680;28;20039;-89
2022/09/14 07:18:57;;;;;;;11.43;3.45;;;;;;;27.87;55.99;100159.75;4964148;28;20063;-89
2022/09/14 07:21:23;;;;;;;8.38;3.15;;;;;;;27.38;58.02;100158.97;4979788;28;20035;-87
2022/09/14 07:23:50;;;;;;;10.07;3.13;;;;;;;27.30;58.65;100148.69;4980634;28;20041;-87
2022/09/14 07:26:20;;;;;;;11.70;3.80;;;;;;;27.98;54.94;100168.63;4963161;28;20054;-88
2022/09/14 07:28:55;;;;;;;16.05;4.03;;;;;;;27.96;55.32;100184.47;4978693;28;20031;-88
2022/09/14 07:31:27;;;;;;;12.13;3.28;;;;;;;28.07;55.59;100195.00;4980052;28;20035;-90
2022/09/14 07:33:56;;;;;;;10.38;3.35;;;;;;;27.44;58.50;100190.56;4983234;28;20509;-91
2022/09/14 07:36:24;;;;;;;11.68;2.65;;;;;;;27.37;59.52;100179.13;4963777;28;20103;-90
2022/09/14 07:38:50;;;;;;;12.95;3.08;;;;;;;27.27;59.97;100184.63;4961987;28;20122;-90
2022/09/14 07:41:20;;;;;;;9.32;2.50;;;;;;;27.33;61.04;100183.50;4980377;28;20081;-91
2022/09/14 07:43:50;;;;;;;8.15;2.30;;;;;;;27.42;60.59;100165.47;4981728;28;20038;-91
2022/09/14 07:46:17;;;;;;;11.07;2.58;;;;;;;27.74;59.03;100163.13;4961599;28;20043;-90
2022/09/14 07:48:42;;;;;;;8.00;2.50;;;;;;;27.47;58.79;100174.47;4960884;28;20043;-91
2022/09/14 07:51:10;;;;;;;11.27;2.65;;;;;;;27.13;60.53;100174.34;4977921;28;20089;-89
2022/09/14 07:53:41;;;;;;;13.73;2.50;;;;;;;27.18;60.57;100155.25;4977410;28;20556;-88
2022/09/14 07:56:08;;;;;;;12.57;2.90;;;;;;;27.17;60.48;100164.53;4978995;28;20074;-88
2022/09/14 07:58:34;;;;;;;13.45;3.10;;;;;;;27.05;59.85;100165.94;4956418;28;20129;-89
2022/09/14 08:01:01;;;;;;;15.85;3.03;;;;;;;26.75;62.19;100168.78;4977688;28;20066;-88
2022/09/14 08:03:27;;;;;;;17.63;3.47;;;;;;;26.85;62.54;100161.41;4989413;28;20097;-91
2022/09/14 08:06:04;;;;;;;8.80;3.00;;;;;;;26.59;62.10;100168.78;4982066;28;20073;-89
2022/09/14 08:08:40;;;;;;;14.93;3.70;;;;;;;26.12;63.66;100179.97;4984448;28;20133;-90
2022/09/14 08:11:10;;;;;;;12.65;3.97;;;;;;;25.87;65.32;100179.97;4961832;28;20031;-91
2022/09/14 08:13:37;;;;;;;9.20;3.25;;;;;;;25.88;66.02;100192.47;4960345;28;20068;-92
2022/09/14 08:16:04;;;;;;;13.25;3.35;;;;;;;25.92;68.34;100206.34;4981671;28;20375;-91
2022/09/14 08:18:32;;;;;;;8.75;3.25;;;;;;;25.76;67.96;100213.63;4964023;28;20054;-89
2022/09/14 08:21:03;;;;;;;9.98;3.55;;;;;;;25.75;67.98;100203.88;4979882;28;20375;-91
2022/09/14 08:23:29;;;;;;;12.13;3.45;;;;;;;25.61;67.71;100200.03;4975510;28;20602;-92
2022/09/14 08:25:54;;;;;;;10.20;3.50;;;;;;;25.72;68.31;100209.03;4979592;28;20070;-92
2022/09/14 08:28:23;;;;;;;13.73;3.20;;;;;;;25.70;68.84;100209.28;4978072;28;20137;-91
2022/09/14 08:30:48;;;;;;;9.23;3.38;;;;;;;25.74;68.31;100229.38;4978487;28;20037;-91
2022/09/14 08:33:14;;;;;;;13.20;3.30;;;;;;;25.65;69.18;100250.00;4977898;28;20487;-90
2022/09/14 08:35:44;;;;;;;12.32;3.70;;;;;;;25.75;70.15;100276.34;4981687;28;20051;-93
2022/09/14 08:38:11;;;;;;;14.68;3.05;;;;;;;25.56;70.92;100286.84;4962359;28;20383;-91
2022/09/14 08:40:44;;;;;;;11.25;3.17;;;;;;;25.60;69.66;100290.69;4977423;28;20062;-91
2022/09/14 08:43:12;;;;;;;12.23;2.88;;;;;;;25.55;70.48;100282.53;4979006;28;20114;-89
2022/09/14 08:45:41;;;;;;;15.07;3.10;;;;;;;25.50;70.62;100279.78;4983023;28;20041;-92
2022/09/14 08:48:19;;;;;;;9.25;3.05;;;;;;;25.48;71.26;100277.31;4979716;28;20066;-90
2022/09/14 08:50:44;;;;;;;8.95;2.75;;;;;;;25.75;70.46;100274.47;4978038;28;20077;-94
2022/09/14 08:53:10;;;;;;;14.98;3.35;;;;;;;25.68;71.17;100282.03;4978508;28;20038;-87
2022/09/14 08:55:45;;;;;;;16.55;4.18;;;;;;;25.75;71.62;100282.59;4978471;28;20039;-90
2022/09/14 08:58:39;;;;;;;16.17;4.05;;;;;;;25.74;70.63;100280.13;4959545;28;20061;-90
2022/09/14 09:01:18;;;;;;;23.83;3.70;;;;;;;25.62;72.22;100273.03;4979239;28;20074;-91
2022/09/14 09:04:09;;;;;;;14.65;3.80;;;;;;;25.70;70.91;100277.16;4984175;28;20054;-89
2022/09/14 09:07:07;;;;;;;16.55;3.70;;;;;;;25.58;71.34;100265.72;4994487;28;20039;-91
2022/09/14 09:09:42;;;;;;;18.88;3.97;;;;;;;25.51;71.74;100268.69;4986975;28;20054;-90
2022/09/14 09:12:13;;;;;;;14.55;3.85;;;;;;;25.48;71.25;100271.91;5004635;28;20042;-90
2022/09/14 09:14:45;;;;;;;16.93;4.00;;;;;;;25.45;72.70;100266.19;4967882;28;20050;-89
2022/09/14 09:17:26;;;;;;;21.90;3.03;;;;;;;25.53;73.45;100262.97;4988302;28;20297;-93
2022/09/14 09:20:02;;;;;;;12.70;3.30;;;;;;;25.44;74.13;100253.69;5009420;28;20058;-91
2022/09/14 09:22:34;;;;;;;19.35;4.25;;;;;;;25.58;74.97;100249.44;4988284;28;20047;-90
2022/09/14 09:25:03;;;;;;;12.82;3.67;;;;;;;25.80;72.01;100250.03;4962712;28;20101;-92
2022/09/14 09:27:29;;;;;;;24.58;4.72;;;;;;;25.76;71.03;100246.19;4956958;28;20019;-93
2022/09/14 09:29:55;;;;;;;18.15;3.70;;;;;;;25.63;71.77;100239.41;4953474;28;20461;-89
2022/09/14 09:32:24;;;;;;;17.73;4.55;;;;;;;25.68;69.97;100216.88;4969438;28;20031;-92
2022/09/14 09:35:00;;;;;;;14.73;3.60;;;;;;;25.59;71.22;100202.19;4979459;28;20137;-89
2022/09/14 09:37:42;;;;;;;10.82;2.75;;;;;;;25.75;68.99;100175.91;4959036;28;20385;-92
2022/09/14 09:40:33;;;;;;;15.15;2.90;;;;;;;25.76;68.54;100143.03;4977238;28;20035;-91
2022/09/14 09:43:11;;;;;;;20.98;3.22;;;;;;;25.70;69.01;100139.50;4959231;29;20043;-89
2022/09/14 09:45:54;;;;;;;11.77;2.63;;;;;;;25.76;69.17;100132.19;4941062;29;20059;-90
2022/09/14 11:31:11;;;;;;;10.30;3.30;;;;;;;28.58;59.15;99943.66;5140822;23;20057;-92
2022/09/14 11:33:46;;;;;;;17.92;3.88;;;;;;;28.56;58.16;99940.44;5021732;28;20460;-89
2022/09/14 11:36:23;;;;;;;10.60;3.10;;;;;;;28.35;58.94;99934.44;5023949;28;20052;-90
2022/09/14 11:38:58;;;;;;;9.52;3.47;;;;;;;28.19;60.00;99930.31;5007418;28;20401;-90
2022/09/14 11:41:46;;;;;;;10.73;3.95;;;;;;;27.75;62.08;99944.13;5025002;28;20058;-91
2022/09/14 11:44:23;;;;;;;10.27;4.30;;;;;;;27.38;64.16;99939.31;5010609;28;20076;-91
2022/09/14 11:46:56;;;;;;;9.02;3.60;;;;;;;27.13;66.19;99926.75;5025620;28;20041;-91
2022/09/14 11:49:38;;;;;;;10.65;4.50;;;;;;;27.00;66.35;99918.44;5014443;28;20106;-89
2022/09/14 11:52:16;;;;;;;15.55;5.28;;;;;;;27.06;67.49;99923.56;5018132;28;20042;-90
2022/09/14 11:54:43;;;;;;;10.98;4.60;;;;;;;27.22;66.27;99927.75;5006406;28;20072;-89
2022/09/14 11:57:16;;;;;;;15.55;5.15;;;;;;;27.37;65.82;99929.53;5016333;28;20040;-88
2022/09/14 11:59:43;;;;;;;19.38;4.80;;;;;;;27.28;64.70;99935.91;5028856;28;20053;-91
2022/09/14 12:02:26;;;;;;;25.35;5.35;;;;;;;27.03;67.17;99929.56;5021121;28;20424;-91
2022/09/14 12:05:07;;;;;;;18.38;5.03;;;;;;;27.21;66.20;99926.13;4999087;28;20093;-90
2022/09/14 12:07:38;;;;;;;14.60;4.72;;;;;;;27.27;65.50;99907.06;5010093;28;20094;-92
2022/09/14 12:10:13;;;;;;;10.07;4.40;;;;;;;27.34;66.28;99912.97;5009295;28;20037;-89
2022/09/14 12:12:52;;;;;;;15.30;4.60;;;;;;;27.44;66.14;99924.63;5018926;28;20092;-86
2022/09/14 12:15:30;;;;;;;22.38;4.95;;;;;;;27.54;65.66;99929.13;4998348;28;20516;-87
2022/09/14 12:18:05;;;;;;;13.43;5.10;;;;;;;27.57;65.61;99934.81;5023766;28;20808;-87
2022/09/14 12:20:37;;;;;;;12.77;5.28;;;;;;;27.54;65.15;99931.88;5013775;28;20041;-89
2022/09/14 12:23:21;;;;;;;17.10;4.75;;;;;;;27.50;64.63;99925.38;5010450;28;20026;-88
2022/09/14 12:25:56;;;;;;;10.75;4.70;;;;;;;27.54;64.75;99934.59;5001651;28;20034;-90
2022/09/14 12:28:49;;;;;;;10.15;4.28;;;;;;;27.53;64.27;99950.09;5007107;28;20042;-91
2022/09/14 12:31:43;;;;;;;15.40;4.63;;;;;;;27.59;64.07;99942.69;4996766;28;20140;-92
2022/09/14 12:34:22;;;;;;;12.20;4.55;;;;;;;27.58;64.19;99933.69;4982834;28;20038;-90
2022/09/14 12:36:51;;;;;;;10.85;4.75;;;;;;;27.63;65.48;99943.75;5004766;28;20034;-90
2022/09/14 12:39:31;;;;;;;13.55;4.97;;;;;;;27.75;64.65;99941.41;5002062;28;20105;-90
2022/09/14 12:42:00;;;;;;;15.35;6.13;;;;;;;27.52;66.84;99942.22;5007509;28;20073;-91
2022/09/14 12:44:39;;;;;;;15.77;6.13;;;;;;;27.53;66.08;99949.28;5020560;28;20041;-91
2022/09/14 12:47:24;;;;;;;12.68;5.55;;;;;;;27.42;66.19;99936.84;4990392;28;20042;-91
2022/09/14 12:49:57;;;;;;;15.80;5.82;;;;;;;27.51;66.58;99930.50;5005890;28;20035;-91
2022/09/14 12:52:33;;;;;;;17.45;5.90;;;;;;;27.33;67.22;99933.13;5011569;28;20047;-91
2022/09/14 12:55:15;;;;;;;24.25;5.68;;;;;;;27.51;67.39;99925.06;5004249;28;20197;-90
2022/09/14 12:57:53;;;;;;;16.08;6.35;;;;;;;27.58;67.01;99925.53;5020598;28;20030;-90
2022/09/14 13:00:31;;;;;;;15.23;5.78;;;;;;;27.73;66.15;99916.41;5000627;28;20072;-92
2022/09/14 13:03:08;;;;;;;11.23;5.05;;;;;;;27.55;66.85;99925.28;4982446;28;20114;-89
2022/09/14 13:05:41;;;;;;;16.48;5.30;;;;;;;27.70;66.77;99927.88;5000394;28;20057;-88
2022/09/14 13:08:10;;;;;;;10.80;5.75;;;;;;;27.69;65.86;99932.50;5000653;28;20093;-87
2022/09/14 13:10:43;;;;;;;15.45;5.55;;;;;;;27.76;66.72;99937.59;4999136;28;20045;-89
2022/09/14 13:13:16;;;;;;;13.32;5.20;;;;;;;27.76;66.53;99934.06;5005531;28;20370;-89
2022/09/14 13:15:56;;;;;;;11.98;5.47;;;;;;;27.78;65.94;99931.84;5000331;28;20031;-89
2022/09/14 13:18:27;;;;;;;11.90;6.07;;;;;;;27.71;66.47;99924.03;5022778;28;20022;-91
2022/09/14 13:20:55;;;;;;;17.40;5.60;;;;;;;27.89;65.29;99909.66;5028050;28;20124;-91
2022/09/14 13:23:25;;;;;;;10.00;5.25;;;;;;;27.95;64.45;99905.78;5020554;28;20037;-90
2022/09/14 13:25:54;;;;;;;14.15;5.82;;;;;;;27.61;66.26;99908.63;5018146;28;20034;-89
2022/09/14 13:28:24;;;;;;;23.85;6.18;;;;;;;27.47;67.71;99915.06;5035647;28;20077;-90
2022/09/14 13:30:59;;;;;;;19.88;5.00;;;;;;;27.66;67.51;99926.81;5030605;28;20025;-91
2022/09/14 13:33:27;;;;;;;14.18;4.50;;;;;;;27.83;66.22;99913.56;5022329;28;20089;-90
2022/09/14 13:35:58;;;;;;;12.20;3.72;;;;;;;27.98;65.52;99910.66;5018405;28;20034;-92
2022/09/14 13:38:36;;;;;;;12.63;3.78;;;;;;;27.98;65.45;99902.47;5020130;28;20023;-89
2022/09/14 13:41:08;;;;;;;12.13;3.28;;;;;;;28.09;64.02;99904.00;5032955;28;20125;-89
2022/09/14 13:43:34;;;;;;;13.25;4.25;;;;;;;27.97;64.18;99903.59;5013585;28;20034;-89
2022/09/14 14:08:45;;;;;;;18.27;3.83;;;;;;;28.26;64.86;99913.59;5246829;23;21024;-84
2022/09/14 14:44:16;;;;;;;16.38;4.10;;;;;;;27.96;64.80;99918.31;5812112;22;20038;-81
2022/09/14 14:47:06;;;;;;;15.65;3.90;;;;;;;27.70;65.78;99934.13;5371291;23;20107;-86
2022/09/14 14:49:32;;;;;;;13.73;2.90;;;;;;;27.82;66.14;99944.63;5027479;28;20033;-86
2022/09/14 14:51:58;;;;;;;9.48;3.47;;;;;;;27.77;66.42;99944.69;5028258;28;20045;-85
2022/09/14 14:54:27;;;;;;;8.60;2.17;;;;;;;27.81;66.06;99929.38;5050355;28;20044;-83
2022/09/14 14:59:54;;;;;;;9.70;3.40;;;;;;;27.85;65.33;99930.41;5079500;23;20069;-86
2022/09/14 15:02:43;;;;;;;15.20;3.42;;;;;;;27.85;66.81;99954.94;4998473;28;20051;-87
2022/09/14 15:05:09;;;;;;;7.70;2.67;;;;;;;27.83;67.41;99948.97;4986790;28;20034;-87
2022/09/14 15:14:48;;;;;;;16.85;4.47;;;;;;;27.19;82.89;100047.25;5024267;28;20054;-84
2022/09/14 15:17:13;;;;;;;16.15;4.80;;;;;;;27.05;89.25;100046.25;5026697;28;20044;-83
2022/09/14 15:20:14;;;;;;;19.90;4.72;;;;;;;26.97;91.43;100060.44;5045099;22;20098;-86
2022/09/14 15:23:10;;;;;;;10.23;2.97;;;;;;;26.15;98.12;100013.72;5014847;28;20050;-91
2022/09/14 15:25:36;;;;;;;17.00;3.55;;;;;;;25.91;100.00;99965.72;5015053;28;20035;-88
2022/09/14 15:28:01;;;;;;;22.65;4.28;;;;;;;25.56;100.00;99953.84;5016596;28;20057;-89
2022/09/14 15:30:27;;;;;;;13.32;3.67;;;;;;;25.51;100.00;99936.78;5017581;28;20042;-86
2022/09/14 15:32:52;;;;;;;12.73;2.55;;;;;;;25.41;100.00;99924.00;5016443;28;20022;-89
2022/09/14 15:35:19;;;;;;;8.00;2.92;;;;;;;25.46;100.00;99909.59;5017433;28;20042;-87
2022/09/14 15:37:45;;;;;;;10.95;2.85;;;;;;;25.32;100.00;99897.72;4995412;28;20042;-90
2022/09/14 15:40:14;;;;;;;11.68;2.22;;;;;;;25.33;100.00;99907.47;5009226;28;20034;-90
2022/09/14 15:42:42;;;;;;;9.25;2.22;;;;;;;25.41;100.00;99894.16;5001936;28;20030;-86
2022/09/14 15:45:10;;;;;;;9.52;2.25;;;;;;;25.40;100.00;99867.31;4974360;28;20043;-88
2022/09/14 15:47:35;;;;;;;11.50;2.33;;;;;;;25.46;100.00;99867.00;5009864;28;20524;-89
2022/09/14 15:50:01;;;;;;;9.55;2.42;;;;;;;25.48;100.00;99859.44;5011696;28;20027;-88
2022/09/14 15:52:27;;;;;;;12.40;2.67;;;;;;;25.58;100.00;99869.47;5012866;28;20053;-89
2022/09/14 15:54:53;;;;;;;11.25;2.08;;;;;;;25.72;100.00;99862.34;5000414;28;20034;-87
2022/09/14 15:57:25;;;;;;;5.63;1.98;;;;;;;25.43;100.00;99861.31;5009041;28;20026;-91
2022/09/14 15:59:52;;;;;;;10.85;2.15;;;;;;;25.15;100.00;99866.28;5006790;28;20038;-86
2022/09/14 16:02:19;;;;;;;12.27;2.40;;;;;;;24.96;100.00;99857.06;5012381;28;20045;-88
2022/09/14 16:04:44;;;;;;;13.43;2.47;;;;;;;24.90;100.00;99855.44;5012270;28;20042;-85
2022/09/14 16:07:13;;;;;;;16.35;2.45;;;;;;;24.68;100.00;99842.16;5009719;28;20041;-90
2022/09/14 16:09:40;;;;;;;10.10;2.35;;;;;;;24.69;100.00;99834.84;4987514;28;20110;-84
2022/09/14 16:12:07;;;;;;;11.00;2.22;;;;;;;24.58;100.00;99827.78;5014225;28;20078;-85
2022/09/14 16:14:33;;;;;;;8.60;1.80;;;;;;;24.62;100.00;99818.03;5017791;28;20034;-89
2022/09/14 16:16:59;;;;;;;12.48;2.40;;;;;;;24.58;100.00;99814.22;5016261;28;20042;-90
2022/09/14 16:19:25;;;;;;;15.90;2.38;;;;;;;24.67;100.00;99812.59;5014833;28;20401;-91
2022/09/14 16:21:51;;;;;;;9.35;2.13;;;;;;;24.81;100.00;99799.31;5015926;28;20069;-89
2022/09/14 16:24:18;;;;;;;13.50;2.72;;;;;;;24.68;100.00;99796.06;5015989;28;20054;-89
2022/09/14 16:26:45;;;;;;;16.45;3.00;;;;;;;24.79;100.00;99786.00;5017914;28;20018;-91
2022/09/14 16:29:14;;;;;;;11.50;2.05;;;;;;;24.83;100.00;99776.28;5019045;28;20034;-90
2022/09/14 16:31:41;;;;;;;16.27;2.85;;;;;;;24.90;100.00;99782.25;5019139;28;20387;-90
2022/09/14 16:34:11;;;;;;;13.02;2.38;;;;;;;24.90;100.00;99767.88;5019562;28;20101;-91
2022/09/14 16:36:40;;;;;;;12.57;2.20;;;;;;;24.88;100.00;99759.22;5018259;28;20567;-90
2022/09/14 16:39:28;;;;;;;11.68;2.40;;;;;;;24.87;100.00;99761.09;5019264;28;20038;-90
2022/09/14 16:41:54;;;;;;;8.77;1.80;;;;;;;24.92;100.00;99761.13;5003076;28;20090;-90
2022/09/14 16:44:23;;;;;;;8.35;1.67;;;;;;;24.99;100.00;99755.41;5019140;28;20083;-91
2022/09/14 16:46:53;;;;;;;9.63;2.17;;;;;;;25.15;100.00;99752.38;5018956;28;20113;-91
2022/09/14 16:49:20;;;;;;;7.53;1.65;;;;;;;25.23;100.00;99747.44;5019531;28;20019;-89
2022/09/14 16:51:46;;;;;;;11.63;1.60;;;;;;;25.30;99.89;99747.97;5019192;28;20078;-91
2022/09/14 16:54:20;;;;;;;9.07;1.65;;;;;;;25.32;99.60;99745.81;5018672;28;20027;-89
2022/09/14 16:56:46;;;;;;;6.13;1.15;;;;;;;25.45;98.87;99742.50;5001908;28;20113;-90
2022/09/14 16:59:12;;;;;;;9.18;1.80;;;;;;;25.53;97.28;99741.94;4985201;28;20022;-90
2022/09/14 17:01:44;;;;;;;15.15;1.80;;;;;;;25.57;100.00;99732.97;5012666;28;20046;-90
2022/09/14 17:04:16;;;;;;;14.65;1.63;;;;;;;25.83;90.16;99736.34;5017944;28;20042;-90
2022/09/14 17:06:48;;;;;;;11.77;2.03;;;;;;;25.79;91.40;99729.84;5018800;28;20034;-89
2022/09/14 17:09:19;;;;;;;9.30;1.98;;;;;;;25.89;85.46;99739.81;5015160;28;20102;-88
2022/09/14 17:11:45;;;;;;;12.68;1.60;;;;;;;25.83;79.12;99732.81;5013551;28;20050;-84
2022/09/14 17:14:17;;;;;;;11.70;1.70;;;;;;;25.87;81.37;99737.41;5017730;28;20022;-88
2022/09/14 17:16:43;;;;;;;13.48;1.80;;;;;;;25.89;86.64;99729.78;5017793;28;20041;-90
2022/09/14 17:19:10;;;;;;;8.27;2.08;;;;;;;25.88;84.74;99739.03;5017961;28;20050;-90
2022/09/14 17:21:40;;;;;;;13.13;1.40;;;;;;;25.90;85.01;99750.41;5017667;28;20058;-90
2022/09/14 17:24:10;;;;;;;9.10;2.28;;;;;;;25.96;86.26;99746.56;5018678;28;20089;-91
2022/09/14 17:26:36;;;;;;;17.35;1.83;;;;;;;25.90;87.45;99744.16;5018616;28;20030;-88
2022/09/14 17:29:03;;;;;;;9.10;1.98;;;;;;;25.86;86.42;99735.75;5017557;28;20053;-88
2022/09/14 17:31:33;;;;;;;9.18;1.90;;;;;;;25.69;87.67;99748.91;5017810;28;20026;-89
2022/09/14 17:34:01;;;;;;;8.90;2.50;;;;;;;25.73;88.74;99747.25;5016606;28;20025;-87
2022/09/14 17:36:28;;;;;;;11.35;2.20;;;;;;;25.73;90.94;99744.53;5014190;28;20050;-88
2022/09/14 17:38:58;;;;;;;13.90;2.78;;;;;;;25.74;91.05;99742.63;5016823;28;20023;-89
2022/09/14 17:41:29;;;;;;;9.73;1.55;;;;;;;25.70;88.50;99750.53;5017890;28;20026;-91
2022/09/14 17:43:58;;;;;;;9.93;2.30;;;;;;;25.55;91.39;99764.97;5017496;28;20025;-91
2022/09/14 17:46:24;;;;;;;9.55;2.42;;;;;;;25.46;92.80;99776.66;5018727;28;20038;-89
2022/09/14 17:48:51;;;;;;;19.83;2.80;;;;;;;25.47;91.82;99762.00;5017998;28;20035;-90
2022/09/14 17:51:19;;;;;;;7.72;2.10;;;;;;;25.26;93.23;99768.59;5016791;28;20038;-90
2022/09/14 17:53:46;;;;;;;13.50;2.13;;;;;;;25.25;91.88;99767.00;5016858;28;20053;-89
2022/09/14 17:56:14;;;;;;;6.53;1.75;;;;;;;25.35;82.14;99766.94;5013782;28;20053;-90
2022/09/14 17:58:41;;;;;;;12.73;2.58;;;;;;;25.43;80.15;99766.34;5011255;28;20039;-91
2022/09/14 18:01:12;;;;;;;13.93;1.77;;;;;;;25.55;78.64;99767.69;5016141;28;20022;-89
2022/09/14 18:03:39;;;;;;;10.13;2.15;;;;;;;25.61;73.87;99768.50;5015783;28;20099;-90